Time;durP1;ratioP1;P1;durP2;ratioP2;P2;SDS_P1;SDS_P2;PMS_P1;PMS_P2;Temp;Humidity;BMP_temperature;BMP_pressure;BME280_temperature;BME280_humidity;BME280_pressure;Samples;Min_cycle;Max_cycle;Signal;HPM_P1;HPM_P2
2021/05/16 00:02:20;;;;;;;17.50;7.93;;;10.60;99.90;;;;;;5073070;28;20119;-76
2021/05/16 00:04:46;;;;;;;17.33;7.90;;;10.60;99.90;;;;;;5074470;28;20108;-75
2021/05/16 00:07:11;;;;;;;18.02;7.13;;;10.60;99.90;;;;;;5073182;28;20027;-75
2021/05/16 00:09:37;;;;;;;16.15;7.32;;;10.60;99.90;;;;;;5074427;28;20032;-76
2021/05/16 00:12:04;;;;;;;20.40;7.88;;;10.50;99.90;;;;;;5074400;28;20473;-76
2021/05/16 00:14:30;;;;;;;19.10;9.27;;;10.50;99.90;;;;;;5074175;28;20051;-76
2021/05/16 00:16:56;;;;;;;16.65;7.53;;;10.50;99.90;;;;;;5074170;28;20456;-75
2021/05/16 00:19:21;;;;;;;17.88;7.65;;;10.50;99.90;;;;;;5073388;28;20032;-76
2021/05/16 00:21:48;;;;;;;20.38;8.57;;;10.50;99.90;;;;;;5074055;28;20056;-76
2021/05/16 00:24:14;;;;;;;23.13;9.25;;;10.50;99.90;;;;;;5074167;28;20082;-75
2021/05/16 00:26:40;;;;;;;15.32;7.22;;;10.50;99.90;;;;;;5074240;28;20020;-75
2021/05/16 00:29:06;;;;;;;19.85;8.48;;;10.50;99.90;;;;;;5073998;28;20074;-75
2021/05/16 00:31:32;;;;;;;16.92;7.47;;;10.50;99.90;;;;;;5073960;28;20031;-75
2021/05/16 00:33:57;;;;;;;33.78;9.20;;;10.50;99.90;;;;;;5072505;28;20024;-75
2021/05/16 00:36:24;;;;;;;24.23;8.35;;;10.50;99.90;;;;;;5073708;28;20085;-75
2021/05/16 00:38:49;;;;;;;21.83;7.03;;;10.50;99.90;;;;;;5072596;28;20028;-75
2021/05/16 00:41:16;;;;;;;19.45;7.32;;;10.50;99.90;;;;;;5072493;28;20081;-75
2021/05/16 00:43:41;;;;;;;19.15;6.30;;;10.50;99.90;;;;;;5072416;28;20028;-75
2021/05/16 00:46:09;;;;;;;17.70;6.90;;;10.50;99.90;;;;;;5072469;28;20021;-75
2021/05/16 00:48:39;;;;;;;16.95;6.63;;;10.50;99.90;;;;;;5073545;28;20020;-75
2021/05/16 00:51:05;;;;;;;20.60;6.65;;;10.60;99.90;;;;;;5073674;28;20028;-75
2021/05/16 00:53:31;;;;;;;20.27;6.45;;;10.60;99.90;;;;;;5073690;28;20056;-75
2021/05/16 00:55:57;;;;;;;27.80;6.78;;;10.60;99.90;;;;;;5072317;28;20560;-75
2021/05/16 00:58:25;;;;;;;22.40;7.78;;;10.60;99.90;;;;;;5074050;28;20035;-76
2021/05/16 01:00:50;;;;;;;20.40;6.28;;;10.60;99.90;;;;;;5072175;28;20029;-75
2021/05/16 01:03:16;;;;;;;22.52;8.07;;;10.60;99.90;;;;;;5073509;28;20029;-75
2021/05/16 01:05:43;;;;;;;28.30;7.68;;;10.60;99.90;;;;;;5073301;28;20027;-75
2021/05/16 01:08:10;;;;;;;37.75;8.00;;;10.60;99.90;;;;;;5073493;28;20021;-75
2021/05/16 01:10:36;;;;;;;23.05;7.00;;;10.60;99.90;;;;;;5072090;28;20020;-75
2021/05/16 01:13:04;;;;;;;31.40;8.43;;;10.60;99.90;;;;;;5072195;28;20035;-75
2021/05/16 01:15:30;;;;;;;29.02;8.32;;;10.60;99.90;;;;;;5073444;28;20021;-75
2021/05/16 01:17:57;;;;;;;27.40;9.23;;;10.60;99.90;;;;;;5073471;28;20025;-75
2021/05/16 01:20:32;;;;;;;24.10;9.10;;;10.60;99.90;;;;;;5073325;28;20111;-75
2021/05/16 01:23:10;;;;;;;36.13;9.68;;;10.60;99.90;;;;;;5073037;28;20059;-76
2021/05/16 01:25:39;;;;;;;32.45;7.72;;;10.60;99.90;;;;;;5072988;28;20073;-76
2021/05/16 01:28:06;;;;;;;27.13;9.00;;;10.60;99.90;;;;;;5073097;28;20104;-75
2021/05/16 01:30:32;;;;;;;28.15;7.90;;;10.60;99.90;;;;;;5072805;28;20093;-76
2021/05/16 01:32:58;;;;;;;31.00;7.57;;;10.60;99.90;;;;;;5073123;28;20029;-75
2021/05/16 01:35:24;;;;;;;28.05;6.95;;;10.60;99.90;;;;;;5072719;28;20075;-75
2021/05/16 01:37:50;;;;;;;29.15;6.88;;;10.60;99.90;;;;;;5073157;28;20028;-75
2021/05/16 01:40:18;;;;;;;30.27;6.90;;;10.60;99.90;;;;;;5071766;28;20391;-75
2021/05/16 01:42:49;;;;;;;24.48;6.60;;;10.50;99.90;;;;;;5072931;28;20468;-75
2021/05/16 01:45:17;;;;;;;33.90;8.32;;;10.50;99.90;;;;;;5073042;28;20495;-75
2021/05/16 01:47:43;;;;;;;21.27;5.63;;;10.50;99.90;;;;;;5073109;28;20023;-76
2021/05/16 01:50:11;;;;;;;26.73;6.47;;;10.50;99.90;;;;;;5072820;28;20436;-75
2021/05/16 01:52:40;;;;;;;22.55;6.35;;;10.50;99.90;;;;;;5072937;28;20383;-75
2021/05/16 01:55:07;;;;;;;29.25;7.63;;;10.50;99.90;;;;;;5072770;28;20025;-75
2021/05/16 01:57:32;;;;;;;21.13;6.40;;;10.50;99.90;;;;;;5072605;28;20032;-75
2021/05/16 01:59:59;;;;;;;29.75;7.28;;;10.50;99.90;;;;;;5072480;28;20025;-75
2021/05/16 02:02:25;;;;;;;23.15;6.85;;;10.50;99.90;;;;;;5072771;28;20052;-75
2021/05/16 02:04:51;;;;;;;26.63;6.35;;;10.50;99.90;;;;;;5071295;28;20025;-76
2021/05/16 02:07:17;;;;;;;24.50;7.10;;;10.50;99.90;;;;;;5072808;28;20028;-75
2021/05/16 02:09:43;;;;;;;22.95;6.35;;;10.50;99.90;;;;;;5071496;28;20020;-75
2021/05/16 02:12:09;;;;;;;21.60;6.60;;;10.50;99.90;;;;;;5072721;28;20096;-75
2021/05/16 02:14:36;;;;;;;28.58;6.93;;;10.50;99.90;;;;;;5071492;28;20435;-76
2021/05/16 02:17:03;;;;;;;19.55;6.45;;;10.50;99.90;;;;;;5072595;28;20028;-75
2021/05/16 02:19:29;;;;;;;31.67;8.80;;;10.50;99.90;;;;;;5072693;28;20552;-75
2021/05/16 02:21:55;;;;;;;30.70;7.65;;;10.50;99.90;;;;;;5071167;28;20060;-75
2021/05/16 02:24:21;;;;;;;31.65;7.30;;;10.50;99.90;;;;;;5072611;28;20016;-76
2021/05/16 02:26:48;;;;;;;26.30;7.60;;;10.50;99.90;;;;;;5072627;28;20025;-75
2021/05/16 02:29:14;;;;;;;29.20;6.93;;;10.50;99.90;;;;;;5071381;28;20499;-75
2021/05/16 02:31:41;;;;;;;31.92;7.47;;;10.50;99.90;;;;;;5072476;28;20025;-75
2021/05/16 02:34:07;;;;;;;28.20;8.52;;;10.50;99.90;;;;;;5072600;28;20024;-75
2021/05/16 02:36:32;;;;;;;23.98;6.38;;;10.50;99.90;;;;;;5072259;28;20052;-75
2021/05/16 02:38:58;;;;;;;29.60;7.75;;;10.50;99.90;;;;;;5071323;28;20040;-76
2021/05/16 02:41:24;;;;;;;31.40;6.50;;;10.50;99.90;;;;;;5073059;28;20040;-75
2021/05/16 02:43:50;;;;;;;32.50;7.57;;;10.50;99.90;;;;;;5074887;28;20025;-75
2021/05/16 02:46:16;;;;;;;32.92;8.60;;;10.50;99.90;;;;;;5074745;28;20028;-75
2021/05/16 02:48:41;;;;;;;23.63;6.22;;;10.50;99.90;;;;;;5075983;28;20063;-75
2021/05/16 02:51:07;;;;;;;29.60;6.93;;;10.50;99.90;;;;;;5075677;28;20056;-76
2021/05/16 02:53:33;;;;;;;23.85;6.28;;;10.50;99.90;;;;;;5075903;28;20021;-75
2021/05/16 02:55:59;;;;;;;26.15;8.02;;;10.50;99.90;;;;;;5074523;28;20434;-75
2021/05/16 02:58:25;;;;;;;28.67;7.50;;;10.50;99.90;;;;;;5075959;28;20095;-75
2021/05/16 03:00:50;;;;;;;30.80;8.00;;;10.60;99.90;;;;;;5075762;28;20493;-75
2021/05/16 03:03:16;;;;;;;32.92;8.60;;;10.50;99.90;;;;;;5075731;28;20029;-75
2021/05/16 03:05:41;;;;;;;20.70;7.00;;;10.50;99.90;;;;;;5075628;28;20479;-75
2021/05/16 03:08:07;;;;;;;25.30;7.38;;;10.50;99.90;;;;;;5075610;28;20074;-75
2021/05/16 03:10:33;;;;;;;34.92;9.95;;;10.50;99.90;;;;;;5075698;28;20444;-75
2021/05/16 03:12:59;;;;;;;23.90;8.48;;;10.50;99.90;;;;;;5075510;28;20025;-75
2021/05/16 03:15:24;;;;;;;30.85;8.63;;;10.50;99.90;;;;;;5074114;28;20035;-75
2021/05/16 03:17:50;;;;;;;27.17;8.85;;;10.50;99.90;;;;;;5075430;28;20031;-75
2021/05/16 03:20:16;;;;;;;31.75;10.25;;;10.50;99.90;;;;;;5074154;28;20016;-75
2021/05/16 03:22:42;;;;;;;35.72;9.82;;;10.50;99.90;;;;;;5075178;28;20066;-75
2021/05/16 03:25:10;;;;;;;28.73;9.27;;;10.50;99.90;;;;;;5075251;28;20024;-75
2021/05/16 03:27:37;;;;;;;29.88;8.90;;;10.50;99.90;;;;;;5075367;28;20070;-75
2021/05/16 03:30:05;;;;;;;32.13;9.50;;;10.50;99.90;;;;;;5075250;28;20074;-75
2021/05/16 03:32:30;;;;;;;31.05;10.45;;;10.50;99.90;;;;;;5075024;28;20028;-75
2021/05/16 03:34:56;;;;;;;33.95;11.05;;;10.50;99.90;;;;;;5073956;28;20416;-75
2021/05/16 03:37:21;;;;;;;30.92;9.57;;;10.50;99.90;;;;;;5074916;28;20033;-75
2021/05/16 03:39:47;;;;;;;30.17;10.55;;;10.50;99.90;;;;;;5075020;28;20021;-75
2021/05/16 03:42:13;;;;;;;38.20;12.07;;;10.50;99.90;;;;;;5074883;28;20036;-75
2021/05/16 03:44:38;;;;;;;33.47;11.43;;;10.50;99.90;;;;;;5074971;28;20021;-75
2021/05/16 03:47:04;;;;;;;28.98;10.98;;;10.50;99.90;;;;;;5074786;28;20037;-75
2021/05/16 03:49:29;;;;;;;35.92;11.88;;;10.50;99.90;;;;;;5074884;28;20027;-75
2021/05/16 03:51:55;;;;;;;39.50;11.88;;;10.50;99.90;;;;;;5074591;28;20107;-75
2021/05/16 03:54:21;;;;;;;36.42;12.75;;;10.50;99.90;;;;;;5074716;28;20028;-75
2021/05/16 03:56:46;;;;;;;33.67;11.75;;;10.50;99.90;;;;;;5074700;28;20039;-75
2021/05/16 03:59:12;;;;;;;34.00;12.55;;;10.50;99.90;;;;;;5074680;28;20031;-75
2021/05/16 04:01:38;;;;;;;32.60;11.18;;;10.50;99.90;;;;;;5073783;28;20040;-75
2021/05/16 04:04:03;;;;;;;30.27;10.85;;;10.50;99.90;;;;;;5074438;28;20055;-75
2021/05/16 04:06:29;;;;;;;32.63;10.00;;;10.50;99.90;;;;;;5072098;28;20384;-75
2021/05/16 04:08:54;;;;;;;40.85;13.32;;;10.50;99.90;;;;;;5073068;28;20020;-75
2021/05/16 04:11:20;;;;;;;39.00;12.30;;;10.50;99.90;;;;;;5074298;28;20032;-75
2021/05/16 04:13:46;;;;;;;34.90;11.18;;;10.50;99.90;;;;;;5074380;28;20483;-75
2021/05/16 04:16:12;;;;;;;43.47;11.35;;;10.50;99.90;;;;;;5074048;28;20103;-75
2021/05/16 04:18:38;;;;;;;31.60;10.07;;;10.50;99.90;;;;;;5074282;28;20104;-75
2021/05/16 04:21:05;;;;;;;35.22;10.77;;;10.50;99.90;;;;;;5074167;28;20020;-75
2021/05/16 04:23:31;;;;;;;33.65;10.25;;;10.50;99.90;;;;;;5074099;28;20029;-75
2021/05/16 04:25:57;;;;;;;32.45;11.15;;;10.50;99.90;;;;;;5074056;28;20490;-75
2021/05/16 04:28:22;;;;;;;34.55;10.73;;;10.50;99.90;;;;;;5074149;28;20028;-75
2021/05/16 04:30:48;;;;;;;39.00;12.68;;;10.50;99.90;;;;;;5072768;28;20029;-75
2021/05/16 04:33:15;;;;;;;26.38;11.05;;;10.50;99.90;;;;;;5072632;28;20032;-75
2021/05/16 04:35:41;;;;;;;38.63;13.23;;;10.50;99.90;;;;;;5073716;28;20403;-75
2021/05/16 04:38:06;;;;;;;42.85;12.57;;;10.50;99.90;;;;;;5073795;28;20472;-75
2021/05/16 04:40:32;;;;;;;37.53;12.18;;;10.60;99.90;;;;;;5073941;28;20024;-75
2021/05/16 04:42:57;;;;;;;41.17;13.70;;;10.50;99.90;;;;;;5073627;28;20451;-75
2021/05/16 04:45:23;;;;;;;37.40;12.43;;;10.50;99.90;;;;;;5073683;28;20025;-75
2021/05/16 04:47:49;;;;;;;36.08;12.18;;;10.50;99.90;;;;;;5072515;28;20020;-75
2021/05/16 04:50:15;;;;;;;32.60;12.27;;;10.60;99.90;;;;;;5072421;28;20107;-75
2021/05/16 04:52:41;;;;;;;35.97;12.05;;;10.60;99.90;;;;;;5073644;28;20016;-75
2021/05/16 04:55:07;;;;;;;33.80;12.70;;;10.60;99.90;;;;;;5073527;28;20029;-75
2021/05/16 04:57:33;;;;;;;39.28;13.23;;;10.60;99.90;;;;;;5073580;28;20150;-75
2021/05/16 05:00:00;;;;;;;36.20;13.25;;;10.60;99.90;;;;;;5073564;28;20475;-75
2021/05/16 05:02:26;;;;;;;32.38;11.80;;;10.60;99.90;;;;;;5066755;28;20032;-75
2021/05/16 05:04:52;;;;;;;33.35;13.05;;;10.60;99.90;;;;;;5068613;28;20028;-75
2021/05/16 05:07:17;;;;;;;32.65;12.73;;;10.60;99.90;;;;;;5072165;28;20036;-75
2021/05/16 05:09:43;;;;;;;40.33;12.63;;;10.60;99.90;;;;;;5073026;28;20032;-75
2021/05/16 05:12:09;;;;;;;38.67;13.18;;;10.60;99.90;;;;;;5088689;28;20031;-75
2021/05/16 05:14:34;;;;;;;30.05;11.98;;;10.70;99.90;;;;;;5073373;28;20032;-76
2021/05/16 05:17:00;;;;;;;35.70;12.80;;;10.70;99.90;;;;;;5071972;28;20365;-74
2021/05/16 05:19:26;;;;;;;40.22;14.55;;;10.60;99.90;;;;;;5072091;28;20020;-74
2021/05/16 05:21:51;;;;;;;42.55;13.45;;;10.60;99.90;;;;;;5073181;28;20021;-74
2021/05/16 05:24:17;;;;;;;39.80;12.90;;;10.60;99.90;;;;;;5073103;28;20033;-74
2021/05/16 05:26:42;;;;;;;29.52;12.07;;;10.60;99.90;;;;;;5073044;28;20476;-76
2021/05/16 05:29:08;;;;;;;37.42;12.85;;;10.60;99.90;;;;;;5072824;28;20077;-76
2021/05/16 05:31:33;;;;;;;40.33;13.73;;;10.70;99.90;;;;;;5072681;28;20491;-76
2021/05/16 05:33:59;;;;;;;39.60;15.10;;;10.70;99.90;;;;;;5073126;28;20483;-77
2021/05/16 05:36:27;;;;;;;38.55;15.43;;;10.70;99.90;;;;;;5072659;28;20055;-77
2021/05/16 05:38:53;;;;;;;42.75;15.07;;;10.70;99.90;;;;;;5071286;28;20468;-77
2021/05/16 05:41:18;;;;;;;46.58;14.18;;;10.70;99.90;;;;;;5072301;28;20020;-77
2021/05/16 05:43:44;;;;;;;39.47;13.70;;;10.80;99.90;;;;;;5072807;28;20381;-77
2021/05/16 05:46:10;;;;;;;31.27;14.45;;;10.70;99.90;;;;;;5072663;28;20024;-77
2021/05/16 05:48:35;;;;;;;39.50;15.07;;;10.70;99.90;;;;;;5071472;28;20025;-77
2021/05/16 05:51:01;;;;;;;35.35;13.15;;;10.70;99.90;;;;;;5072624;28;20025;-77
2021/05/16 05:53:27;;;;;;;32.70;11.90;;;10.70;99.90;;;;;;5072734;28;20025;-77
2021/05/16 05:55:53;;;;;;;37.42;12.57;;;10.80;99.90;;;;;;5072653;28;20032;-77
2021/05/16 05:58:18;;;;;;;44.35;12.20;;;10.70;99.90;;;;;;5072837;28;20025;-77
2021/05/16 06:00:44;;;;;;;39.60;12.77;;;10.70;99.90;;;;;;5072961;28;20024;-77
2021/05/16 06:03:09;;;;;;;33.42;11.73;;;10.80;99.90;;;;;;5072549;28;20024;-77
2021/05/16 06:05:35;;;;;;;39.22;12.30;;;10.80;99.90;;;;;;5072796;28;20027;-78
2021/05/16 06:08:02;;;;;;;37.28;13.07;;;10.80;99.90;;;;;;5072764;28;20025;-78
2021/05/16 06:10:28;;;;;;;36.22;12.50;;;10.80;99.90;;;;;;5072738;28;20017;-78
2021/05/16 06:12:54;;;;;;;32.05;10.85;;;10.90;99.90;;;;;;5072664;28;20077;-77
2021/05/16 06:15:22;;;;;;;29.70;11.15;;;10.90;99.90;;;;;;5072618;28;20021;-77
2021/05/16 06:17:47;;;;;;;29.75;12.35;;;11.00;99.90;;;;;;5075653;28;20411;-77
2021/05/16 06:20:14;;;;;;;40.25;11.95;;;11.10;99.90;;;;;;5076670;28;20024;-77
2021/05/16 06:22:39;;;;;;;33.72;11.93;;;11.10;99.90;;;;;;5076287;28;20056;-77
2021/05/16 06:25:05;;;;;;;33.70;11.18;;;11.00;99.90;;;;;;5076431;28;20412;-77
2021/05/16 06:27:31;;;;;;;34.75;12.00;;;11.10;99.90;;;;;;5075091;28;20101;-77
2021/05/16 06:29:56;;;;;;;38.35;11.23;;;11.10;99.90;;;;;;5076164;28;20029;-79
2021/05/16 06:32:22;;;;;;;36.10;12.25;;;11.20;99.90;;;;;;5075399;28;20020;-79
2021/05/16 06:34:48;;;;;;;31.20;10.73;;;11.20;99.90;;;;;;5074202;28;20066;-78
2021/05/16 06:37:13;;;;;;;30.23;13.07;;;11.20;99.90;;;;;;5075238;28;20028;-79
2021/05/16 06:39:39;;;;;;;31.50;11.85;;;11.30;99.90;;;;;;5075351;28;20104;-78
2021/05/16 06:42:05;;;;;;;29.40;10.65;;;11.20;99.90;;;;;;5074076;28;20037;-78
2021/05/16 06:44:30;;;;;;;31.95;11.32;;;11.20;99.90;;;;;;5074343;28;20020;-77
2021/05/16 06:46:56;;;;;;;38.47;11.80;;;11.20;99.90;;;;;;5075017;28;20104;-77
2021/05/16 06:49:21;;;;;;;31.33;12.02;;;11.20;99.90;;;;;;5075146;28;20056;-77
2021/05/16 06:51:47;;;;;;;35.22;11.55;;;11.30;99.90;;;;;;5072741;28;20028;-76
2021/05/16 06:54:13;;;;;;;30.88;11.85;;;11.30;99.90;;;;;;5074225;28;20025;-75
2021/05/16 06:56:39;;;;;;;30.70;11.77;;;11.30;99.90;;;;;;5075228;28;20062;-76
2021/05/16 06:59:04;;;;;;;27.15;10.43;;;11.40;99.90;;;;;;5074057;28;20032;-76
2021/05/16 07:01:33;;;;;;;26.45;10.32;;;11.40;99.90;;;;;;5075272;28;20487;-76
2021/05/16 07:03:59;;;;;;;29.67;11.10;;;11.50;99.90;;;;;;5075378;28;20012;-76
2021/05/16 07:06:25;;;;;;;25.70;10.00;;;11.60;99.90;;;;;;5075773;28;20496;-76
2021/05/16 07:08:51;;;;;;;36.72;11.38;;;11.70;99.90;;;;;;5075389;28;20020;-76
2021/05/16 07:11:17;;;;;;;32.40;11.77;;;11.70;99.90;;;;;;5075446;28;20021;-76
2021/05/16 07:13:43;;;;;;;30.73;11.65;;;11.70;99.90;;;;;;5073748;28;20027;-76
2021/05/16 07:16:08;;;;;;;35.42;14.02;;;11.80;99.90;;;;;;5074801;28;20092;-76
2021/05/16 07:18:34;;;;;;;43.63;14.55;;;11.90;99.90;;;;;;5074087;28;20028;-76
2021/05/16 07:21:00;;;;;;;28.23;14.13;;;12.00;99.90;;;;;;5075320;28;20020;-76
2021/05/16 07:23:26;;;;;;;32.25;14.75;;;12.00;99.90;;;;;;5075150;28;20074;-76
2021/05/16 07:25:52;;;;;;;37.47;16.75;;;12.00;99.90;;;;;;5075176;28;20020;-76
2021/05/16 07:28:17;;;;;;;39.92;17.45;;;12.00;99.90;;;;;;5074720;28;20036;-76
2021/05/16 07:30:43;;;;;;;35.92;15.57;;;12.00;99.90;;;;;;5075093;28;20048;-76
2021/05/16 07:33:09;;;;;;;33.45;14.65;;;11.90;99.90;;;;;;5074952;28;20033;-77
2021/05/16 07:35:35;;;;;;;34.03;15.30;;;12.00;99.90;;;;;;5073778;28;20080;-75
2021/05/16 07:38:01;;;;;;;37.17;14.90;;;12.00;99.90;;;;;;5074612;28;20059;-75
2021/05/16 07:40:26;;;;;;;35.67;14.60;;;12.10;99.90;;;;;;5071802;28;20056;-76
2021/05/16 07:42:53;;;;;;;37.40;15.75;;;12.20;99.90;;;;;;5073616;28;20422;-76
2021/05/16 07:45:19;;;;;;;34.55;16.85;;;12.20;99.90;;;;;;5068678;28;20083;-76
2021/05/16 07:47:45;;;;;;;33.67;16.67;;;12.20;99.90;;;;;;5073396;28;20032;-76
2021/05/16 07:50:12;;;;;;;37.83;17.17;;;12.20;99.90;;;;;;5073373;28;20024;-76
2021/05/16 07:52:39;;;;;;;37.35;17.33;;;12.20;99.90;;;;;;5072520;28;20099;-76
2021/05/16 07:55:06;;;;;;;36.53;18.05;;;12.20;99.90;;;;;;5073427;28;20511;-76
2021/05/16 07:57:31;;;;;;;32.25;17.58;;;12.20;99.90;;;;;;5073239;28;20024;-76
2021/05/16 07:59:57;;;;;;;36.30;18.15;;;12.30;99.90;;;;;;5073334;28;20434;-79
2021/05/16 08:02:23;;;;;;;38.08;18.30;;;12.40;99.90;;;;;;5079953;28;20024;-76
2021/05/16 08:04:48;;;;;;;40.95;19.88;;;12.40;99.90;;;;;;5080096;28;20048;-81
2021/05/16 08:07:14;;;;;;;43.30;20.40;;;12.40;99.90;;;;;;5078563;28;20369;-78
2021/05/16 08:09:39;;;;;;;33.83;19.35;;;12.40;99.90;;;;;;5070704;28;20080;-77
2021/05/16 08:12:05;;;;;;;39.85;20.52;;;12.40;99.90;;;;;;5073039;28;20547;-76
2021/05/16 08:14:31;;;;;;;36.63;20.92;;;12.40;99.90;;;;;;5072384;28;20103;-77
2021/05/16 08:16:56;;;;;;;36.97;21.98;;;12.50;99.90;;;;;;5072769;28;20059;-77
2021/05/16 08:19:22;;;;;;;37.33;21.42;;;12.60;99.90;;;;;;5072918;28;20028;-77
2021/05/16 08:21:48;;;;;;;39.40;19.90;;;12.60;99.90;;;;;;5065938;28;20028;-78
2021/05/16 08:24:15;;;;;;;37.28;20.08;;;12.70;99.90;;;;;;5067382;28;20016;-78
2021/05/16 08:26:41;;;;;;;36.45;20.20;;;12.70;99.90;;;;;;5084819;28;20107;-78
2021/05/16 08:29:08;;;;;;;34.63;18.45;;;12.70;99.90;;;;;;5067675;28;20019;-78
2021/05/16 08:31:35;;;;;;;33.88;17.08;;;12.80;99.90;;;;;;5058077;28;20032;-78
2021/05/16 08:34:06;;;;;;;36.45;18.08;;;12.80;99.90;;;;;;5066791;28;20063;-78
2021/05/16 08:36:33;;;;;;;31.67;15.73;;;12.90;99.30;;;;;;5068518;28;20044;-78
2021/05/16 08:38:59;;;;;;;29.67;14.80;;;12.90;99.70;;;;;;5070488;28;20028;-77
2021/05/16 08:41:25;;;;;;;35.95;16.45;;;13.00;99.40;;;;;;5071213;28;20094;-76
2021/05/16 08:43:51;;;;;;;32.25;15.18;;;13.00;98.50;;;;;;5071540;28;20091;-76
2021/05/16 08:46:16;;;;;;;33.33;14.98;;;13.10;99.00;;;;;;5072113;28;20107;-76
2021/05/16 08:48:42;;;;;;;29.80;15.60;;;13.20;98.40;;;;;;5071724;28;20382;-79
2021/05/16 08:51:09;;;;;;;32.75;14.57;;;13.10;98.10;;;;;;5073036;28;20024;-75
2021/05/16 08:53:34;;;;;;;29.88;14.38;;;13.10;98.00;;;;;;5071542;28;20479;-75
2021/05/16 08:56:02;;;;;;;24.33;12.55;;;13.10;97.30;;;;;;5072660;28;20024;-75
2021/05/16 08:58:28;;;;;;;25.17;12.75;;;13.30;97.50;;;;;;5072996;28;20104;-76
2021/05/16 09:00:53;;;;;;;26.83;12.32;;;13.40;97.50;;;;;;5071526;28;20103;-76
2021/05/16 09:03:19;;;;;;;23.40;11.15;;;13.50;97.30;;;;;;5072235;28;20028;-76
2021/05/16 09:05:50;;;;;;;28.80;10.68;;;13.60;95.80;;;;;;5072514;28;20036;-76
2021/05/16 09:08:18;;;;;;;15.45;9.18;;;13.60;95.70;;;;;;5071443;28;20467;-76
2021/05/16 09:10:55;;;;;;;25.60;10.30;;;13.60;96.20;;;;;;5072669;28;20434;-75
2021/05/16 09:13:23;;;;;;;20.42;8.55;;;13.70;96.30;;;;;;5072884;28;20016;-76
2021/05/16 09:16:09;;;;;;;15.15;7.80;;;13.80;95.60;;;;;;5070242;28;20025;-76
2021/05/16 09:18:39;;;;;;;18.33;7.60;;;14.10;95.80;;;;;;5071659;28;20481;-75
2021/05/16 09:21:30;;;;;;;23.58;7.72;;;14.30;94.50;;;;;;5071728;28;20039;-75
2021/05/16 09:24:01;;;;;;;15.85;6.30;;;14.30;93.70;;;;;;5069172;28;20020;-76
2021/05/16 09:26:35;;;;;;;17.58;5.68;;;14.20;93.30;;;;;;5084896;28;20040;-76
2021/05/16 09:29:28;;;;;;;20.52;6.97;;;14.40;94.30;;;;;;5084207;28;20012;-76
2021/05/16 09:31:54;;;;;;;16.83;5.82;;;14.50;93.40;;;;;;5087806;28;20016;-75
2021/05/16 09:34:21;;;;;;;18.00;7.03;;;14.40;92.70;;;;;;5082027;28;20579;-75
2021/05/16 09:36:47;;;;;;;20.35;6.63;;;14.30;93.30;;;;;;5085950;28;20058;-76
2021/05/16 09:39:25;;;;;;;14.18;4.95;;;14.10;93.20;;;;;;5080443;28;20529;-76
2021/05/16 09:42:08;;;;;;;15.98;5.15;;;14.00;93.10;;;;;;5070872;28;20056;-76
2021/05/16 09:44:47;;;;;;;19.10;6.47;;;14.00;93.50;;;;;;5061275;28;20075;-76
2021/05/16 09:47:26;;;;;;;22.65;5.85;;;14.10;93.30;;;;;;5070239;28;20476;-76
2021/05/16 09:49:57;;;;;;;15.30;5.25;;;14.10;93.70;;;;;;5072525;28;20445;-76
2021/05/16 09:52:30;;;;;;;17.02;4.32;;;14.10;93.00;;;;;;5076427;28;20035;-76
2021/05/16 09:55:09;;;;;;;18.40;6.45;;;14.20;94.20;;;;;;5076708;28;20505;-77
2021/05/16 09:57:37;;;;;;;16.25;4.13;;;15.10;94.00;;;;;;5076576;28;20035;-76
2021/05/16 10:00:07;;;;;;;16.52;3.33;;;16.80;89.00;;;;;;5074999;28;20118;-77
2021/05/16 10:02:33;;;;;;;13.35;3.80;;;18.10;82.10;;;;;;5075984;28;20021;-77
2021/05/16 10:05:01;;;;;;;21.63;4.00;;;18.10;78.50;;;;;;5076521;28;20016;-77
2021/05/16 10:07:29;;;;;;;14.40;3.08;;;17.70;75.40;;;;;;5076325;28;20527;-77
2021/05/16 10:09:57;;;;;;;13.65;3.53;;;16.90;78.00;;;;;;5076402;28;20036;-77
2021/05/16 10:12:23;;;;;;;13.38;3.03;;;17.30;79.80;;;;;;5076164;28;20025;-77
2021/05/16 10:15:16;;;;;;;10.02;2.80;;;18.50;76.30;;;;;;5076240;28;20024;-76
2021/05/16 10:17:47;;;;;;;14.52;3.03;;;20.00;73.80;;;;;;5074661;28;20107;-77
2021/05/16 10:20:20;;;;;;;13.13;2.92;;;20.60;66.00;;;;;;5076430;28;20029;-77
2021/05/16 10:23:03;;;;;;;11.63;3.10;;;19.90;66.40;;;;;;5075786;28;20041;-77
2021/05/16 10:25:48;;;;;;;11.63;2.55;;;19.90;68.10;;;;;;5074674;28;20028;-77
2021/05/16 10:28:16;;;;;;;12.98;3.40;;;19.00;66.80;;;;;;5074697;28;20024;-77
2021/05/16 10:31:06;;;;;;;14.88;2.88;;;19.00;66.20;;;;;;5075635;28;20490;-77
2021/05/16 10:33:36;;;;;;;8.85;2.55;;;20.00;66.30;;;;;;5076005;28;20036;-77
2021/05/16 10:36:02;;;;;;;9.80;3.00;;;21.10;63.90;;;;;;5075674;28;20048;-77
2021/05/16 10:38:35;;;;;;;9.40;2.70;;;22.10;60.00;;;;;;5075909;28;20032;-77
2021/05/16 10:41:25;;;;;;;9.13;2.50;;;22.90;56.10;;;;;;5075714;28;20502;-77
2021/05/16 10:43:51;;;;;;;14.50;3.53;;;23.30;54.00;;;;;;5071418;28;20025;-77
2021/05/16 10:46:43;;;;;;;9.73;2.97;;;22.20;54.30;;;;;;5065472;28;20016;-77
2021/05/16 10:49:26;;;;;;;9.25;2.40;;;21.90;56.40;;;;;;5075483;28;20013;-77
2021/05/16 10:51:52;;;;;;;11.73;2.88;;;21.00;57.00;;;;;;5074814;28;20025;-77
2021/05/16 10:54:32;;;;;;;8.98;2.00;;;21.10;57.50;;;;;;5074762;28;20024;-77
2021/05/16 10:57:24;;;;;;;8.50;1.90;;;22.20;55.00;;;;;;5073723;28;20116;-77
2021/05/16 10:59:50;;;;;;;8.23;2.22;;;22.60;53.00;;;;;;5095475;28;20020;-79
2021/05/16 11:02:53;;;;;;;9.07;2.60;;;22.20;54.70;;;;;;5091235;28;20044;-79
2021/05/16 11:05:40;;;;;;;5.95;1.92;;;22.30;53.60;;;;;;5071250;28;20035;-79
2021/05/16 11:08:07;;;;;;;10.25;2.65;;;22.80;53.00;;;;;;5074687;28;20048;-79
2021/05/16 11:10:32;;;;;;;9.77;2.47;;;22.00;52.10;;;;;;5074473;28;20020;-80
2021/05/16 11:13:17;;;;;;;6.93;1.77;;;21.60;53.80;;;;;;5073281;28;20017;-80
2021/05/16 11:15:47;;;;;;;8.88;2.20;;;21.40;54.20;;;;;;5085956;28;20491;-79
2021/05/16 11:18:17;;;;;;;10.93;3.05;;;21.20;54.90;;;;;;5080849;28;20028;-79
2021/05/16 11:20:43;;;;;;;9.23;2.40;;;21.20;55.00;;;;;;5085388;28;20024;-78
2021/05/16 11:23:09;;;;;;;10.63;2.80;;;20.50;53.60;;;;;;5070428;28;20476;-79
2021/05/16 11:25:34;;;;;;;11.00;2.42;;;19.50;57.00;;;;;;5077661;28;20099;-80
2021/05/16 11:28:08;;;;;;;10.68;2.20;;;19.30;59.50;;;;;;5081713;28;20422;-79
2021/05/16 11:30:34;;;;;;;7.78;1.95;;;19.30;61.30;;;;;;5080779;28;20035;-79
2021/05/16 11:32:59;;;;;;;10.60;2.38;;;18.80;60.00;;;;;;5082703;28;20020;-77
2021/05/16 11:35:26;;;;;;;8.50;2.85;;;18.10;63.20;;;;;;5079569;28;20415;-77
2021/05/16 11:37:56;;;;;;;12.43;2.90;;;17.50;66.10;;;;;;5064438;28;20020;-76
2021/05/16 11:40:32;;;;;;;8.57;2.33;;;16.90;68.30;;;;;;5071055;28;20391;-77
2021/05/16 11:42:59;;;;;;;9.38;3.10;;;16.80;70.30;;;;;;5072927;28;20039;-76
2021/05/16 11:45:28;;;;;;;9.07;2.00;;;16.60;71.20;;;;;;5071496;28;20421;-76
2021/05/16 11:47:54;;;;;;;9.77;2.20;;;16.50;74.00;;;;;;5087080;28;20484;-77
2021/05/16 11:50:20;;;;;;;13.90;3.40;;;16.30;79.90;;;;;;5073537;28;20063;-76
2021/05/16 11:52:46;;;;;;;6.57;2.22;;;16.20;84.30;;;;;;5070132;28;20020;-77
2021/05/16 11:55:12;;;;;;;8.10;2.20;;;16.90;88.20;;;;;;5071061;28;20019;-77
2021/05/16 11:57:42;;;;;;;6.30;2.05;;;17.40;86.10;;;;;;5073023;28;20436;-79
2021/05/16 12:00:09;;;;;;;6.47;2.20;;;18.00;84.30;;;;;;5073326;28;20043;-80
2021/05/16 12:02:36;;;;;;;8.15;2.53;;;18.70;82.90;;;;;;5071791;28;20369;-80
2021/05/16 12:05:03;;;;;;;8.90;2.15;;;19.70;80.30;;;;;;5069357;28;20075;-81
2021/05/16 12:07:29;;;;;;;7.35;2.63;;;19.90;76.90;;;;;;5073022;28;20013;-80
2021/05/16 12:09:55;;;;;;;6.95;1.70;;;19.50;73.40;;;;;;5071823;28;20027;-81
2021/05/16 12:12:22;;;;;;;8.23;1.95;;;19.20;75.60;;;;;;5072786;28;20021;-80
2021/05/16 12:14:49;;;;;;;9.48;1.88;;;19.20;76.60;;;;;;5070731;28;20026;-80
2021/05/16 12:17:15;;;;;;;10.68;2.40;;;19.20;72.70;;;;;;5073046;28;20021;-80
2021/05/16 12:19:42;;;;;;;8.93;1.50;;;18.90;69.10;;;;;;5070711;28;20359;-80
2021/05/16 12:22:14;;;;;;;5.53;1.38;;;18.70;67.60;;;;;;5072714;28;20383;-81
2021/05/16 12:24:48;;;;;;;7.38;2.65;;;18.40;68.00;;;;;;5072177;28;20364;-81
2021/05/16 12:27:15;;;;;;;10.48;2.42;;;18.60;72.50;;;;;;5072009;28;20021;-80
2021/05/16 12:29:41;;;;;;;6.65;2.42;;;19.10;71.20;;;;;;5070968;28;20471;-82
2021/05/16 12:32:08;;;;;;;9.20;2.85;;;18.90;68.70;;;;;;5072455;28;20029;-80
2021/05/16 12:34:35;;;;;;;8.98;1.67;;;18.40;70.00;;;;;;5067752;28;20118;-80
2021/05/16 12:37:05;;;;;;;6.93;2.00;;;18.20;70.70;;;;;;5072066;28;20028;-81